createdAt,value
2019-01-19T00:00:32.373Z,-1.85
2019-01-19T00:01:32.281Z,-1.83
2019-01-19T00:02:32.406Z,-1.88
2019-01-19T00:03:32.108Z,-1.75
2019-01-19T00:04:32.009Z,-1.74
2019-01-19T00:05:31.984Z,-1.70
2019-01-19T00:06:31.833Z,-1.71
2019-01-19T00:07:31.755Z,-1.68
2019-01-19T00:08:31.795Z,-1.68
2019-01-19T00:09:31.556Z,-1.80
2019-01-19T00:10:31.481Z,-1.67
2019-01-19T00:11:31.407Z,-1.83
2019-01-19T00:12:31.318Z,-1.86
2019-01-19T00:13:31.201Z,-1.80
2019-01-19T00:14:31.231Z,-1.83
2019-01-19T00:15:31.022Z,-1.83
2019-01-19T00:16:30.925Z,-1.82
2019-01-19T00:17:31.133Z,-1.85
2019-01-19T00:18:30.764Z,-1.78
2019-01-19T00:19:30.656Z,-1.80
2019-01-19T00:20:30.740Z,-1.75
2019-01-19T00:21:30.489Z,-1.77
2019-01-19T00:22:30.456Z,-1.70
2019-01-19T00:23:30.308Z,-1.64
2019-01-19T00:24:30.265Z,-1.64
2019-01-19T00:25:30.119Z,-1.57
2019-01-19T00:26:30.070Z,-1.65
2019-01-19T00:27:29.943Z,-1.64
2019-01-19T00:28:30.014Z,-1.68
2019-01-19T00:29:29.752Z,-1.71
2019-01-19T00:30:29.668Z,-1.70
2019-01-19T00:31:29.694Z,-1.77
2019-01-19T00:32:29.484Z,-1.65
2019-01-19T00:33:29.410Z,-1.70
2019-01-19T00:34:34.011Z,-1.67
2019-01-19T00:35:29.210Z,-1.62
2019-01-19T00:36:29.322Z,-1.67
2019-01-19T00:37:29.029Z,-1.70
2019-01-19T00:38:30.158Z,-1.64
2019-01-19T00:39:28.872Z,-1.59
2019-01-19T00:40:28.765Z,-1.57
2019-01-19T00:41:28.739Z,-1.61
2019-01-19T00:42:28.585Z,-1.51
2019-01-19T00:43:28.497Z,-1.57
2019-01-19T00:44:28.585Z,-1.62
2019-01-19T00:45:28.306Z,-1.54
2019-01-19T00:46:28.363Z,-1.56
2019-01-19T00:47:28.126Z,-1.47
2019-01-19T00:48:28.172Z,-1.49
2019-01-19T00:49:27.959Z,-1.46
2019-01-19T00:50:27.867Z,-1.50
2019-01-19T00:51:27.985Z,-1.54
2019-01-19T00:52:27.688Z,-1.62
2019-01-19T00:53:27.588Z,-1.54
2019-01-19T00:54:27.627Z,-1.64
2019-01-19T00:55:27.402Z,-1.70
2019-01-19T00:56:27.409Z,-1.68
2019-01-19T00:57:27.229Z,-1.74
2019-01-19T00:58:27.217Z,-1.74
2019-01-19T00:59:27.057Z,-1.67
2019-01-19T01:00:27.026Z,-1.74
2019-01-19T01:01:26.860Z,-1.72
2019-01-19T01:02:26.835Z,-1.65
2019-01-19T01:03:26.681Z,-1.68
2019-01-19T01:04:26.683Z,-1.80
2019-01-19T01:05:26.510Z,-1.77
2019-01-19T01:06:26.448Z,-1.74
2019-01-19T01:07:26.319Z,-1.77
2019-01-19T01:08:26.258Z,-1.70
2019-01-19T01:09:26.172Z,-1.68
2019-01-19T01:10:26.049Z,-1.82
2019-01-19T01:11:26.069Z,-1.86
2019-01-19T01:12:25.872Z,-1.80
2019-01-19T01:13:25.828Z,-1.83
2019-01-19T01:14:25.883Z,-1.71
2019-01-19T01:15:25.616Z,-1.70
2019-01-19T01:16:25.508Z,-1.78
2019-01-19T01:17:25.497Z,-1.78
2019-01-19T01:18:25.334Z,-1.77
2019-01-19T01:19:25.239Z,-1.70
2019-01-19T01:20:25.342Z,-1.71
2019-01-19T01:21:25.054Z,-1.77
2019-01-19T01:22:25.114Z,-1.82
2019-01-19T01:23:24.877Z,-1.86
2019-01-19T01:24:24.924Z,-1.82
2019-01-19T01:25:24.711Z,-1.77
2019-01-19T01:26:24.734Z,-1.74
2019-01-19T01:27:24.513Z,-1.83
2019-01-19T01:28:24.544Z,-1.82
2019-01-19T01:29:24.343Z,-1.83
2019-01-19T01:30:24.260Z,-1.80
2019-01-19T01:31:24.356Z,-1.75
2019-01-19T01:32:24.064Z,-1.80
2019-01-19T01:33:23.967Z,-1.80
2019-01-19T01:34:23.972Z,-1.78
2019-01-19T01:35:23.823Z,-1.74
2019-01-19T01:36:23.776Z,-1.77
2019-01-19T01:37:23.607Z,-1.85
2019-01-19T01:38:23.589Z,-1.80
2019-01-19T01:39:23.429Z,-1.78
2019-01-19T01:40:23.395Z,-1.82
2019-01-19T01:41:23.258Z,-1.74
2019-01-19T01:42:23.206Z,-1.85
2019-01-19T01:43:23.075Z,-1.83
2019-01-19T01:44:23.014Z,-1.78
2019-01-19T01:45:22.883Z,-1.71
2019-01-19T01:46:22.855Z,-1.67
2019-01-19T01:47:22.708Z,-1.75
2019-01-19T01:48:22.832Z,-1.59
2019-01-19T01:49:22.533Z,-1.57
2019-01-19T01:50:22.433Z,-1.56
2019-01-19T01:51:22.364Z,-1.46
2019-01-19T01:52:22.450Z,-1.50
2019-01-19T01:53:22.163Z,-1.44
2019-01-19T01:54:22.076Z,-1.33
2019-01-19T01:55:21.991Z,-1.49
2019-01-19T01:56:22.102Z,-1.49
2019-01-19T01:57:21.810Z,-1.54
2019-01-19T01:58:21.712Z,-1.64
2019-01-19T01:59:21.633Z,-1.51
2019-01-19T02:00:21.541Z,-1.46
2019-01-19T02:01:21.458Z,-1.50
2019-01-19T02:02:21.493Z,-1.49
2019-01-19T02:03:21.264Z,-1.51
2019-01-19T02:04:21.304Z,-1.50
2019-01-19T02:05:21.084Z,-1.46
2019-01-19T02:06:21.143Z,-1.47
2019-01-19T02:07:20.906Z,-1.46
2019-01-19T02:08:20.919Z,-1.41
2019-01-19T02:09:20.715Z,-1.51
2019-01-19T02:10:20.726Z,-1.51
2019-01-19T02:11:20.533Z,-1.43
2019-01-19T02:12:20.573Z,-1.35
2019-01-19T02:13:20.358Z,-1.43
2019-01-19T02:14:20.345Z,-1.54
2019-01-19T02:15:20.169Z,-1.47
2019-01-19T02:16:20.150Z,-1.51
2019-01-19T02:17:20.021Z,-1.53
2019-01-19T02:18:19.960Z,-1.65
2019-01-19T02:19:19.814Z,-1.62
2019-01-19T02:20:19.717Z,-1.62
2019-01-19T02:21:19.637Z,-1.65
2019-01-19T02:22:19.614Z,-1.62
2019-01-19T02:23:19.450Z,-1.72
2019-01-19T02:24:19.357Z,-1.71
2019-01-19T02:25:20.433Z,-1.74
2019-01-19T02:26:19.180Z,-1.74
2019-01-19T02:27:20.279Z,-1.64
2019-01-19T02:28:18.995Z,-1.77
2019-01-19T02:29:19.012Z,-1.71
2019-01-19T02:30:18.820Z,-1.80
2019-01-19T02:31:18.731Z,-1.85
2019-01-19T02:32:18.856Z,-1.92
2019-01-19T02:33:18.543Z,-1.92
2019-01-19T02:34:18.457Z,-1.98
2019-01-19T02:35:18.438Z,-1.98
2019-01-19T02:36:18.272Z,-2.08
2019-01-19T02:37:18.195Z,-2.07
2019-01-19T02:38:18.249Z,-2.08
2019-01-19T02:39:17.999Z,-2.16
2019-01-19T02:40:17.917Z,-2.18
2019-01-19T02:41:17.825Z,-2.00
2019-01-19T02:42:17.898Z,-1.83
2019-01-19T02:43:17.638Z,-1.77
2019-01-19T02:44:17.554Z,-1.80
2019-01-19T02:45:17.458Z,-1.78
2019-01-19T02:46:17.482Z,-1.70
2019-01-19T02:47:17.293Z,-1.68
2019-01-19T02:48:17.193Z,-1.72
2019-01-19T02:49:17.307Z,-1.78
2019-01-19T02:50:17.006Z,-1.68
2019-01-19T02:51:16.920Z,-1.68
2019-01-19T02:52:16.939Z,-1.75
2019-01-19T02:53:16.737Z,-1.71
2019-01-19T02:54:16.644Z,-1.82
2019-01-19T02:55:16.726Z,-1.83
2019-01-19T02:56:16.469Z,-1.86
2019-01-19T02:57:16.568Z,-1.96
2019-01-19T02:58:16.278Z,-2.01
2019-01-19T02:59:16.344Z,-2.01
2019-01-19T03:00:16.102Z,-2.07
2019-01-19T03:01:16.011Z,-2.10
2019-01-19T03:02:15.990Z,-2.22
2019-01-19T03:03:15.844Z,-2.13
2019-01-19T03:04:15.746Z,-2.14
2019-01-19T03:05:15.773Z,-2.04
2019-01-19T03:06:15.559Z,-2.01
2019-01-19T03:07:15.470Z,-2.14
2019-01-19T03:08:15.420Z,-2.00
2019-01-19T03:09:15.283Z,-2.04
2019-01-19T03:10:15.388Z,-2.18
2019-01-19T03:11:15.103Z,-2.32
2019-01-19T03:12:15.198Z,-2.28
2019-01-19T03:13:14.944Z,-2.41
2019-01-19T03:14:15.008Z,-2.40
2019-01-19T03:15:14.740Z,-2.38
2019-01-19T03:16:14.816Z,-2.38
2019-01-19T03:17:14.563Z,-2.43
2019-01-19T03:18:14.658Z,-2.29
2019-01-19T03:19:14.383Z,-2.29
2019-01-19T03:20:14.438Z,-2.24
2019-01-19T03:21:14.197Z,-2.18
2019-01-19T03:22:14.239Z,-2.18
2019-01-19T03:23:14.165Z,-2.11
2019-01-19T03:24:14.050Z,-2.01
2019-01-19T03:25:13.830Z,-2.01
2019-01-19T03:26:13.860Z,-2.03
2019-01-19T03:27:13.652Z,-2.11
2019-01-19T03:28:13.558Z,-1.95
2019-01-19T03:29:13.516Z,-1.95
2019-01-19T03:30:13.385Z,-1.95
2019-01-19T03:31:13.311Z,-1.95
2019-01-19T03:32:13.294Z,-1.89
2019-01-19T03:33:13.120Z,-2.01
2019-01-19T03:34:13.126Z,-1.98
2019-01-19T03:35:12.923Z,-1.93
2019-01-19T03:36:12.897Z,-1.78
2019-01-19T03:37:12.744Z,-1.82
2019-01-19T03:38:12.657Z,-1.85
2019-01-19T03:39:12.590Z,-1.80
2019-01-19T03:40:12.472Z,-1.85
2019-01-19T03:41:12.379Z,-1.78
2019-01-19T03:42:12.323Z,-1.80
2019-01-19T03:43:12.200Z,-1.89
2019-01-19T03:44:12.170Z,-1.75
2019-01-19T03:45:12.019Z,-1.77
2019-01-19T03:46:11.939Z,-1.85
2019-01-19T03:47:11.838Z,-1.83
2019-01-19T03:48:11.952Z,-1.86
2019-01-19T03:49:11.652Z,-1.86
2019-01-19T03:50:11.590Z,-1.82
2019-01-19T03:51:11.476Z,-1.86
2019-01-19T03:52:11.571Z,-1.78
2019-01-19T03:53:11.285Z,-1.75
2019-01-19T03:54:11.380Z,-1.70
2019-01-19T03:55:11.131Z,-1.68
2019-01-19T03:56:11.191Z,-1.75
2019-01-19T03:57:10.923Z,-1.70
2019-01-19T03:58:10.841Z,-1.71
2019-01-19T03:59:10.801Z,-1.77
2019-01-19T04:00:10.673Z,-1.70
2019-01-19T04:01:10.563Z,-1.62
2019-01-19T04:02:10.469Z,-1.62
2019-01-19T04:03:10.424Z,-1.65
2019-01-19T04:04:10.297Z,-1.56
2019-01-19T04:05:10.244Z,-1.54
2019-01-19T04:06:12.909Z,-1.62
2019-01-19T04:07:10.263Z,-1.59
2019-01-19T04:08:09.933Z,-1.72
2019-01-19T04:09:09.834Z,-1.77
2019-01-19T04:10:09.878Z,-1.80
2019-01-19T04:11:09.685Z,-1.80
2019-01-19T04:12:09.570Z,-1.83
2019-01-19T04:13:09.661Z,-1.80
2019-01-19T04:14:09.381Z,-1.71
2019-01-19T04:15:09.314Z,-1.77
2019-01-19T04:16:09.274Z,-1.80
2019-01-19T04:17:09.107Z,-1.78
2019-01-19T04:18:09.022Z,-1.75
2019-01-19T04:19:09.089Z,-1.77
2019-01-19T04:20:08.847Z,-1.85
2019-01-19T04:21:08.938Z,-1.77
2019-01-19T04:22:08.667Z,-1.77
2019-01-19T04:23:08.574Z,-1.75
2019-01-19T04:24:08.507Z,-1.93
2019-01-19T04:25:08.380Z,-1.85
2019-01-19T04:26:08.313Z,-2.01
2019-01-19T04:27:08.320Z,-2.07
2019-01-19T04:28:08.111Z,-2.08
2019-01-19T04:29:08.129Z,-2.10
2019-01-19T04:30:07.939Z,-2.21
2019-01-19T04:31:07.970Z,-2.28
2019-01-19T04:32:07.747Z,-2.19
2019-01-19T04:33:07.746Z,-2.32
2019-01-19T04:34:07.565Z,-2.40
2019-01-19T04:35:07.553Z,-2.38
2019-01-19T04:36:07.404Z,-2.29
2019-01-19T04:37:07.370Z,-2.35
2019-01-19T04:38:07.208Z,-2.44
2019-01-19T04:39:07.173Z,-2.47
2019-01-19T04:40:07.057Z,-2.48
2019-01-19T04:41:07.017Z,-2.55
2019-01-19T04:42:06.850Z,-2.61
2019-01-19T04:43:06.791Z,-2.69
2019-01-19T04:44:06.655Z,-2.61
2019-01-19T04:45:06.599Z,-2.69
2019-01-19T04:46:06.501Z,-2.77
2019-01-19T04:47:06.408Z,-2.89
2019-01-19T04:48:06.294Z,-2.83
2019-01-19T04:49:06.202Z,-2.86
2019-01-19T04:50:06.225Z,-2.86
2019-01-19T04:51:06.038Z,-2.95
2019-01-19T04:52:05.932Z,-3.01
2019-01-19T04:53:06.041Z,-2.97
2019-01-19T04:54:05.744Z,-2.97
2019-01-19T04:55:05.654Z,-2.95
2019-01-19T04:56:05.687Z,-3.04
2019-01-19T04:57:05.477Z,-3.01
2019-01-19T04:58:05.380Z,-3.02
2019-01-19T04:59:05.463Z,-3.10
2019-01-19T05:00:05.204Z,-3.08
2019-01-19T05:01:05.272Z,-3.15
2019-01-19T05:02:05.037Z,-3.18
2019-01-19T05:03:04.932Z,-3.19
2019-01-19T05:04:04.879Z,-3.18
2019-01-19T05:05:04.749Z,-3.16
2019-01-19T05:06:11.953Z,-3.23
2019-01-19T05:07:04.580Z,-3.13
2019-01-19T05:08:04.498Z,-3.10
2019-01-19T05:09:04.376Z,-3.19
2019-01-19T05:10:04.292Z,-3.26
2019-01-19T05:11:04.201Z,-3.15
2019-01-19T05:12:04.190Z,-3.19
2019-01-19T05:13:04.014Z,-3.25
2019-01-19T05:14:03.924Z,-3.22
2019-01-19T05:15:03.831Z,-3.13
2019-01-19T05:16:03.942Z,-3.26
2019-01-19T05:17:03.660Z,-3.28
2019-01-19T05:18:03.557Z,-3.15
2019-01-19T05:19:03.471Z,-3.34
2019-01-19T05:20:03.556Z,-3.18
2019-01-19T05:21:03.285Z,-3.16
2019-01-19T05:22:03.394Z,-3.21
2019-01-19T05:23:03.107Z,-3.19
2019-01-19T05:24:03.007Z,-3.21
2019-01-19T05:25:02.972Z,-3.22
2019-01-19T05:26:02.824Z,-3.26
2019-01-19T05:27:02.756Z,-3.34
2019-01-19T05:28:02.791Z,-3.37
2019-01-19T05:29:02.550Z,-3.39
2019-01-19T05:30:02.462Z,-3.33
2019-01-19T05:31:02.393Z,-3.37
2019-01-19T05:32:02.296Z,-3.37
2019-01-19T05:33:02.196Z,-3.36
2019-01-19T05:34:02.210Z,-3.10
2019-01-19T05:35:02.007Z,-3.08
2019-01-19T05:36:02.083Z,-3.04
2019-01-19T05:37:01.842Z,-3.01
2019-01-19T05:38:02.090Z,-3.01
2019-01-19T05:39:01.646Z,-3.02
2019-01-19T05:40:01.557Z,-3.02
2019-01-19T05:41:01.647Z,-2.95
2019-01-19T05:42:01.482Z,-2.95
2019-01-19T05:43:01.284Z,-2.97
2019-01-19T05:44:01.187Z,-2.97
2019-01-19T05:45:01.277Z,-2.94
2019-01-19T05:46:01.006Z,-2.94
2019-01-19T05:47:00.914Z,-2.95
2019-01-19T05:48:00.915Z,-2.83
2019-01-19T05:49:00.734Z,-2.79
2019-01-19T05:50:00.679Z,-2.80
2019-01-19T05:51:00.552Z,-2.82
2019-01-19T05:52:00.485Z,-2.83
2019-01-19T05:53:00.381Z,-2.87
2019-01-19T05:54:00.294Z,-2.95
2019-01-19T05:55:00.242Z,-2.90
2019-01-19T05:56:00.307Z,-2.95
2019-01-19T05:57:00.000Z,-2.93
2019-01-19T05:57:59.947Z,-3.02
2019-01-19T05:58:59.813Z,-2.97
2019-01-19T05:59:59.929Z,-2.98
2019-01-19T06:00:59.632Z,-3.02
2019-01-19T06:01:59.737Z,-3.02
2019-01-19T06:02:59.463Z,-2.97
2019-01-19T06:03:59.356Z,-2.94
2019-01-19T06:04:59.347Z,-2.84
2019-01-19T06:05:59.172Z,-2.83
2019-01-19T06:06:59.082Z,-2.86
2019-01-19T06:07:59.214Z,-2.98
2019-01-19T06:08:58.908Z,-2.93
2019-01-19T06:09:58.971Z,-2.90
2019-01-19T06:10:58.723Z,-2.86
2019-01-19T06:11:58.776Z,-2.79
2019-01-19T06:12:58.540Z,-2.64
2019-01-19T06:13:58.618Z,-2.71
2019-01-19T06:14:58.351Z,-2.62
2019-01-19T06:15:58.276Z,-2.69
2019-01-19T06:16:58.166Z,-2.80
2019-01-19T06:17:58.202Z,-2.71
2019-01-19T06:18:58.009Z,-2.82
2019-01-19T06:19:57.897Z,-2.77
2019-01-19T06:20:58.019Z,-2.84
2019-01-19T06:21:57.738Z,-2.83
2019-01-19T06:22:57.620Z,-2.98
2019-01-19T06:23:57.664Z,-3.01
2019-01-19T06:24:57.447Z,-3.12
2019-01-19T06:25:57.353Z,-3.08
2019-01-19T06:26:57.445Z,-3.12
2019-01-19T06:27:57.163Z,-3.10
2019-01-19T06:28:57.093Z,-3.15
2019-01-19T06:29:57.056Z,-3.18
2019-01-19T06:30:56.896Z,-3.25
2019-01-19T06:31:56.809Z,-3.25
2019-01-19T06:32:56.866Z,-3.13
2019-01-19T06:33:56.639Z,-3.25
2019-01-19T06:34:56.524Z,-3.15
2019-01-19T06:35:56.432Z,-3.16
2019-01-19T06:36:57.621Z,-3.26
2019-01-19T06:37:56.252Z,-3.30
2019-01-19T06:38:56.188Z,-3.31
2019-01-19T06:39:56.069Z,-3.22
2019-01-19T06:40:56.205Z,-3.16
2019-01-19T06:41:55.893Z,-3.15
2019-01-19T06:42:55.797Z,-3.34
2019-01-19T06:43:56.845Z,-3.21
2019-01-19T06:44:55.633Z,-3.08
2019-01-19T06:45:55.829Z,-3.15
2019-01-19T06:46:55.430Z,-3.10
2019-01-19T06:47:55.641Z,-3.15
2019-01-19T06:48:55.246Z,-3.25
2019-01-19T06:49:55.179Z,-3.12
2019-01-19T06:50:55.253Z,-3.26
2019-01-19T06:51:54.983Z,-3.33
2019-01-19T06:52:54.882Z,-3.18
2019-01-19T06:54:01.535Z,-3.23
2019-01-19T06:54:54.709Z,-3.13
2019-01-19T06:55:54.608Z,-3.10
2019-01-19T06:56:54.520Z,-3.01
2019-01-19T06:57:54.583Z,-2.82
2019-01-19T06:58:54.327Z,-2.77
2019-01-19T06:59:54.255Z,-2.69
2019-01-19T07:00:54.151Z,-2.72
2019-01-19T07:01:54.201Z,-2.76
2019-01-19T07:02:53.972Z,-2.82
2019-01-19T07:03:53.875Z,-2.77
2019-01-19T07:04:53.799Z,-2.71
2019-01-19T07:05:53.820Z,-2.68
2019-01-19T07:06:53.599Z,-2.76
2019-01-19T07:07:53.523Z,-2.68
2019-01-19T07:08:53.416Z,-2.62
2019-01-19T07:09:53.470Z,-2.68
2019-01-19T07:10:53.242Z,-2.71
2019-01-19T07:11:53.149Z,-2.65
2019-01-19T07:12:53.255Z,-2.74
2019-01-19T07:13:52.963Z,-2.82
2019-01-19T07:14:52.913Z,-2.82
2019-01-19T07:15:52.879Z,-2.77
2019-01-19T07:16:52.690Z,-2.82
2019-01-19T07:17:52.677Z,-2.82
2019-01-19T07:18:52.509Z,-2.82
2019-01-19T07:19:52.484Z,-2.86
2019-01-19T07:20:52.338Z,-2.95
2019-01-19T07:21:52.294Z,-2.97
2019-01-19T07:22:52.143Z,-3.10
2019-01-19T07:23:52.083Z,-3.04
2019-01-19T07:24:51.957Z,-3.15
2019-01-19T07:25:51.939Z,-3.05
2019-01-19T07:26:51.773Z,-3.05
2019-01-19T07:27:51.927Z,-3.22
2019-01-19T07:28:51.592Z,-3.26
2019-01-19T07:29:51.503Z,-3.23
2019-01-19T07:30:51.546Z,-3.25
2019-01-19T07:31:51.319Z,-3.23
2019-01-19T07:32:51.226Z,-3.21
2019-01-19T07:33:51.351Z,-3.22
2019-01-19T07:34:51.045Z,-3.16
2019-01-19T07:35:51.193Z,-3.36
2019-01-19T07:36:50.863Z,-3.34
2019-01-19T07:37:50.972Z,-3.25
2019-01-19T07:38:50.683Z,-3.21
2019-01-19T07:39:50.776Z,-3.21
2019-01-19T07:40:50.510Z,-3.15
2019-01-19T07:41:51.616Z,-3.16
2019-01-19T07:42:50.320Z,-2.95
2019-01-19T07:43:50.373Z,-2.84
2019-01-19T07:44:50.133Z,-2.83
2019-01-19T07:45:50.225Z,-2.90
2019-01-19T07:46:55.979Z,-2.87
2019-01-19T07:47:49.993Z,-2.89
2019-01-19T07:48:49.765Z,-2.82
2019-01-19T07:49:49.674Z,-2.86
2019-01-19T07:50:49.630Z,-2.80
2019-01-19T07:51:49.495Z,-2.77
2019-01-19T07:52:49.405Z,-2.66
2019-01-19T07:53:49.442Z,-2.76
2019-01-19T07:54:49.219Z,-2.61
2019-01-19T07:55:49.145Z,-2.61
2019-01-19T07:56:49.258Z,-2.64
2019-01-19T07:57:48.958Z,-2.53
2019-01-19T07:58:49.038Z,-2.40
2019-01-19T07:59:48.779Z,-2.29
2019-01-19T08:00:48.689Z,-2.28
2019-01-19T08:01:48.676Z,-2.22
2019-01-19T08:02:48.616Z,-2.19
2019-01-19T08:03:48.399Z,-2.13
2019-01-19T08:04:48.463Z,-2.13
2019-01-19T08:05:48.261Z,-2.00
2019-01-19T08:06:48.129Z,-1.86
2019-01-19T08:07:48.909Z,-1.80
2019-01-19T08:08:47.953Z,-1.77
2019-01-19T08:09:47.855Z,-1.67
2019-01-19T08:10:47.921Z,-1.57
2019-01-19T08:11:47.695Z,-1.56
2019-01-19T08:12:47.729Z,-1.53
2019-01-19T08:13:47.492Z,-1.35
2019-01-19T08:14:54.504Z,-1.35
2019-01-19T08:15:47.316Z,-1.31
2019-01-19T08:16:47.401Z,-1.33
2019-01-19T08:17:47.140Z,-1.23
2019-01-19T08:18:47.155Z,-1.21
2019-01-19T08:19:46.947Z,-1.28
2019-01-19T08:20:46.865Z,-1.20
2019-01-19T08:21:46.968Z,-1.25
2019-01-19T08:22:46.699Z,-1.28
2019-01-19T08:23:46.597Z,-1.13
2019-01-19T08:24:46.511Z,-1.07
2019-01-19T08:25:46.407Z,-1.10
2019-01-19T08:26:46.391Z,-0.96
2019-01-19T08:27:46.227Z,-0.92
2019-01-19T08:28:46.166Z,-0.97
2019-01-19T08:29:46.051Z,-0.81
2019-01-19T08:30:45.963Z,-0.73
2019-01-19T08:31:45.882Z,-0.71
2019-01-19T08:32:45.991Z,-0.70
2019-01-19T08:33:45.746Z,-0.59
2019-01-19T08:34:46.609Z,-0.68
2019-01-19T08:35:45.508Z,-0.71
2019-01-19T08:36:45.634Z,-0.56
2019-01-19T08:37:45.324Z,-0.49
2019-01-19T08:38:45.415Z,-0.53
2019-01-19T08:39:45.147Z,-0.44
2019-01-19T08:40:45.226Z,-0.41
2019-01-19T08:41:44.972Z,-0.39
2019-01-19T08:42:46.088Z,-0.37
2019-01-19T08:43:44.793Z,-0.38
2019-01-19T08:44:44.883Z,-0.31
2019-01-19T08:45:44.619Z,-0.35
2019-01-19T08:46:44.693Z,-0.34
2019-01-19T08:47:44.459Z,-0.27
2019-01-19T08:48:44.506Z,-0.26
2019-01-19T08:49:44.252Z,-0.26
2019-01-19T08:50:44.163Z,-0.20
2019-01-19T08:51:44.313Z,-0.27
2019-01-19T08:52:43.994Z,-0.13
2019-01-19T08:53:43.896Z,-0.13
2019-01-19T08:54:43.928Z,-0.03
2019-01-19T08:55:43.716Z,-0.02
2019-01-19T08:56:43.634Z,-0.06
2019-01-19T08:57:43.770Z,-0.09
2019-01-19T08:58:43.442Z,-0.08
2019-01-19T08:59:43.365Z,0.02
2019-01-19T09:00:43.308Z,0.01
2019-01-19T09:01:43.176Z,0.13
2019-01-19T09:02:43.105Z,0.08
2019-01-19T09:03:43.172Z,0.05
2019-01-19T09:04:42.917Z,0.07
2019-01-19T09:05:42.829Z,0.10
2019-01-19T09:06:42.982Z,0.15
2019-01-19T09:07:42.767Z,0.20
2019-01-19T09:08:42.556Z,0.17
2019-01-19T09:09:42.596Z,0.22
2019-01-19T09:10:42.384Z,0.31
2019-01-19T09:11:42.287Z,0.28
2019-01-19T09:12:42.308Z,0.37
2019-01-19T09:13:42.122Z,0.40
2019-01-19T09:14:42.115Z,0.34
2019-01-19T09:15:41.944Z,0.40
2019-01-19T09:16:41.852Z,0.45
2019-01-19T09:17:41.828Z,0.49
2019-01-19T09:18:41.682Z,0.52
2019-01-19T09:19:41.657Z,0.45
2019-01-19T09:20:41.600Z,0.52
2019-01-19T09:21:41.401Z,0.62
2019-01-19T09:22:41.319Z,0.62
2019-01-19T09:23:41.447Z,0.48
2019-01-19T09:24:41.141Z,0.48
2019-01-19T09:25:41.050Z,0.62
2019-01-19T09:26:41.022Z,0.64
2019-01-19T09:27:40.868Z,0.60
2019-01-19T09:28:40.791Z,0.63
2019-01-19T09:29:40.836Z,0.70
2019-01-19T09:30:40.602Z,0.74
2019-01-19T09:31:40.515Z,0.80
2019-01-19T09:32:40.452Z,0.90
2019-01-19T09:33:40.357Z,0.98
2019-01-19T09:34:40.252Z,1.06
2019-01-19T09:35:40.261Z,1.13
2019-01-19T09:36:40.072Z,1.20
2019-01-19T09:37:40.880Z,1.11
2019-01-19T09:38:40.114Z,1.10
2019-01-19T09:39:39.813Z,1.28
2019-01-19T09:40:39.723Z,1.26
2019-01-19T09:41:39.690Z,1.24
2019-01-19T09:42:39.547Z,1.31
2019-01-19T09:43:39.532Z,1.42
2019-01-19T09:44:39.364Z,1.52
2019-01-19T09:45:39.360Z,1.50
2019-01-19T09:46:39.192Z,1.53
2019-01-19T09:47:39.102Z,1.46
2019-01-19T09:48:39.157Z,1.52
2019-01-19T09:49:38.930Z,1.52
2019-01-19T09:50:39.217Z,1.54
2019-01-19T09:51:38.934Z,1.61
2019-01-19T09:52:38.681Z,1.67
2019-01-19T09:53:38.614Z,1.50
2019-01-19T09:54:39.629Z,1.61
2019-01-19T09:55:38.397Z,1.67
2019-01-19T09:56:38.312Z,1.67
2019-01-19T09:57:38.421Z,1.75
2019-01-19T09:58:38.147Z,1.71
2019-01-19T09:59:38.293Z,1.81
2019-01-19T10:00:45.454Z,1.82
2019-01-19T10:01:38.063Z,1.88
2019-01-19T10:02:37.783Z,2.02
2019-01-19T10:03:37.866Z,2.02
2019-01-19T10:04:37.623Z,2.08
2019-01-19T10:05:37.658Z,2.11
2019-01-19T10:06:37.438Z,2.26
2019-01-19T10:07:37.349Z,2.27
2019-01-19T10:08:37.472Z,2.41
2019-01-19T10:09:37.193Z,2.48
2019-01-19T10:10:37.086Z,2.55
2019-01-19T10:11:38.105Z,2.74
2019-01-19T10:12:36.907Z,2.79
2019-01-19T10:13:36.819Z,2.90
2019-01-19T10:14:36.933Z,3.10
2019-01-19T10:15:36.654Z,3.16
2019-01-19T10:16:36.559Z,3.33
2019-01-19T10:17:36.653Z,3.35
2019-01-19T10:18:36.393Z,3.35
2019-01-19T10:19:36.321Z,3.41
2019-01-19T10:20:36.324Z,3.41
2019-01-19T10:21:36.132Z,3.50
2019-01-19T10:22:36.048Z,3.60
2019-01-19T10:23:36.075Z,3.72
2019-01-19T10:24:35.917Z,3.77
2019-01-19T10:25:35.949Z,3.86
2019-01-19T10:26:35.695Z,3.99
2019-01-19T10:27:37.473Z,3.99
2019-01-19T10:28:35.763Z,3.92
2019-01-19T10:29:35.440Z,3.99
2019-01-19T10:30:35.368Z,4.10
2019-01-19T10:31:35.377Z,4.06
2019-01-19T10:32:35.186Z,4.14
2019-01-19T10:33:35.095Z,4.02
2019-01-19T10:34:35.194Z,4.11
2019-01-19T10:35:34.939Z,4.13
2019-01-19T10:36:34.836Z,3.95
2019-01-19T10:37:35.058Z,4.02
2019-01-19T10:38:34.664Z,4.06
2019-01-19T10:39:34.819Z,4.02
2019-01-19T10:40:34.504Z,4.18
2019-01-19T10:41:40.887Z,4.20
2019-01-19T10:42:34.322Z,4.25
2019-01-19T10:43:34.439Z,4.14
2019-01-19T10:44:34.148Z,4.25
2019-01-19T10:45:34.285Z,4.26
2019-01-19T10:46:33.981Z,4.26
2019-01-19T10:47:33.891Z,4.32
2019-01-19T10:48:35.907Z,4.32
2019-01-19T10:49:33.728Z,4.51
2019-01-19T10:50:33.675Z,4.53
2019-01-19T10:51:33.676Z,4.57
2019-01-19T10:52:33.462Z,4.47
2019-01-19T10:53:33.378Z,4.59
2019-01-19T10:54:33.410Z,4.67
2019-01-19T10:55:33.209Z,4.65
2019-01-19T10:56:33.138Z,4.74
2019-01-19T10:57:33.306Z,4.83
2019-01-19T10:58:32.948Z,4.67
2019-01-19T10:59:32.876Z,4.54
2019-01-19T11:00:32.915Z,4.44
2019-01-19T11:01:32.705Z,4.46
2019-01-19T11:02:32.606Z,4.46
2019-01-19T11:03:32.734Z,4.47
2019-01-19T11:04:32.437Z,4.43
2019-01-19T11:05:32.349Z,4.44
2019-01-19T11:06:32.376Z,4.53
2019-01-19T11:07:32.178Z,4.46
2019-01-19T11:08:32.093Z,4.46
2019-01-19T11:09:32.161Z,4.47
2019-01-19T11:10:31.932Z,4.56
2019-01-19T11:11:31.851Z,4.64
2019-01-19T11:12:31.984Z,4.61
2019-01-19T11:13:31.658Z,4.68
2019-01-19T11:14:31.786Z,4.68
2019-01-19T11:15:31.501Z,4.67
2019-01-19T11:16:31.544Z,4.57
2019-01-19T11:17:31.317Z,4.51
2019-01-19T11:18:31.234Z,4.57
2019-01-19T11:19:31.337Z,4.53
2019-01-19T11:20:31.067Z,4.68
2019-01-19T11:21:31.006Z,4.65
2019-01-19T11:22:30.933Z,4.71
2019-01-19T11:23:30.810Z,4.69
2019-01-19T11:24:30.834Z,4.75
2019-01-19T11:25:30.637Z,4.68
2019-01-19T11:26:30.844Z,4.74
2019-01-19T11:27:30.522Z,4.75
2019-01-19T11:28:30.654Z,4.72
2019-01-19T11:29:30.286Z,4.69
2019-01-19T11:30:30.468Z,4.75
2019-01-19T11:31:30.117Z,4.84
2019-01-19T11:32:30.216Z,4.84
2019-01-19T11:33:29.942Z,4.90
2019-01-19T11:34:36.636Z,4.88
2019-01-19T11:35:29.774Z,4.83
2019-01-19T11:36:29.890Z,4.94
2019-01-19T11:37:29.615Z,4.96
2019-01-19T11:38:29.518Z,4.99
2019-01-19T11:39:29.430Z,4.99
2019-01-19T11:40:29.507Z,5.01
2019-01-19T11:41:29.265Z,5.02
2019-01-19T11:42:29.187Z,5.14
2019-01-19T11:43:29.093Z,5.22
2019-01-19T11:44:30.150Z,5.23
2019-01-19T11:45:28.923Z,5.19
2019-01-19T11:46:28.832Z,5.23
2019-01-19T11:47:28.983Z,5.27
2019-01-19T11:48:28.667Z,5.40
2019-01-19T11:49:28.749Z,5.30
2019-01-19T11:50:28.494Z,5.30
2019-01-19T11:51:28.562Z,5.48
2019-01-19T11:52:28.324Z,5.51
2019-01-19T11:53:28.256Z,5.51
2019-01-19T11:54:28.380Z,5.38
2019-01-19T11:55:28.066Z,5.40
2019-01-19T11:56:27.979Z,5.38
2019-01-19T11:57:28.190Z,5.42
2019-01-19T11:58:27.827Z,5.56
2019-01-19T11:59:28.001Z,5.40
2019-01-19T12:00:27.643Z,5.44
2019-01-19T12:01:27.812Z,5.20
2019-01-19T12:02:27.470Z,5.30
2019-01-19T12:03:27.402Z,5.19
2019-01-19T12:04:27.423Z,5.11
2019-01-19T12:05:27.212Z,4.96
2019-01-19T12:06:27.128Z,5.04
2019-01-19T12:07:27.237Z,4.99
2019-01-19T12:08:26.974Z,5.04
2019-01-19T12:09:26.872Z,5.09
2019-01-19T12:10:27.056Z,5.26
2019-01-19T12:11:26.697Z,5.17
2019-01-19T12:12:26.611Z,5.19
2019-01-19T12:13:26.593Z,5.29
2019-01-19T12:14:26.447Z,5.35
2019-01-19T12:15:26.361Z,5.35
2019-01-19T12:16:26.483Z,5.32
2019-01-19T12:17:26.182Z,5.48
2019-01-19T12:18:26.111Z,5.56
2019-01-19T12:19:32.951Z,5.44
2019-01-19T12:20:25.925Z,5.29
2019-01-19T12:21:25.898Z,5.22
2019-01-19T12:22:25.757Z,5.12
2019-01-19T12:23:25.706Z,4.94
2019-01-19T12:24:25.612Z,5.06
2019-01-19T12:25:25.505Z,5.15
2019-01-19T12:26:25.413Z,5.17
2019-01-19T12:27:25.428Z,5.11
2019-01-19T12:28:25.244Z,5.08
2019-01-19T12:29:25.175Z,4.91
2019-01-19T12:30:25.078Z,5.05
2019-01-19T12:31:24.990Z,5.08
2019-01-19T12:32:24.927Z,4.99
2019-01-19T12:33:24.812Z,4.97
2019-01-19T12:34:24.754Z,4.88
2019-01-19T12:35:24.644Z,4.96
2019-01-19T12:36:24.562Z,4.94
2019-01-19T12:37:24.480Z,4.84
2019-01-19T12:38:26.973Z,4.99
2019-01-19T12:39:24.324Z,4.97
2019-01-19T12:40:24.223Z,4.97
2019-01-19T12:41:24.135Z,4.88
2019-01-19T12:42:24.057Z,4.86
2019-01-19T12:43:23.957Z,4.75
2019-01-19T12:44:23.891Z,4.64
2019-01-19T12:45:23.797Z,4.64
2019-01-19T12:46:23.703Z,4.69
2019-01-19T12:47:23.625Z,4.67
2019-01-19T12:48:23.612Z,4.67
2019-01-19T12:49:23.469Z,4.69
2019-01-19T12:50:23.361Z,4.68
2019-01-19T12:51:23.343Z,4.83
2019-01-19T12:52:23.181Z,4.84
2019-01-19T12:53:23.151Z,4.96
2019-01-19T12:54:23.061Z,4.94
2019-01-19T12:55:22.928Z,5.08
2019-01-19T12:56:22.879Z,5.11
2019-01-19T12:57:22.755Z,5.17
2019-01-19T12:58:22.667Z,5.20
2019-01-19T12:59:22.680Z,5.29